createdAt,value
2022-12-01T00:02:09.267Z,71.00
2022-12-01T00:04:37.188Z,71.20
2022-12-01T00:07:17.761Z,71.20
2022-12-01T00:10:16.829Z,71.00
2022-12-01T00:12:44.111Z,71.00
2022-12-01T00:15:18.827Z,71.00
2022-12-01T00:17:48.081Z,70.90
2022-12-01T00:20:19.991Z,71.10
2022-12-01T00:22:55.691Z,71.40
2022-12-01T00:25:29.697Z,71.50
2022-12-01T00:27:57.752Z,71.40
2022-12-01T00:30:26.627Z,71.60
2022-12-01T00:33:00.885Z,71.50
2022-12-01T00:35:29.399Z,71.70
2022-12-01T00:38:03.940Z,71.80
2022-12-01T00:40:31.803Z,72.10
2022-12-01T00:43:08.845Z,72.00
2022-12-01T00:45:42.808Z,72.10
2022-12-01T00:48:10.633Z,72.20
2022-12-01T00:50:44.922Z,72.20
2022-12-01T00:53:12.313Z,72.40
2022-12-01T00:55:46.742Z,72.60
2022-12-01T00:58:14.468Z,72.70
2022-12-01T01:00:49.979Z,72.80
2022-12-01T01:03:23.742Z,72.70
2022-12-01T01:05:58.752Z,72.50
2022-12-01T01:08:32.858Z,72.40
2022-12-01T01:11:08.727Z,72.20
2022-12-01T01:13:37.400Z,72.10
2022-12-01T01:16:14.895Z,72.10
2022-12-01T01:18:42.267Z,72.30
2022-12-01T01:21:19.779Z,72.20
2022-12-01T01:23:54.984Z,72.40
2022-12-01T01:26:28.968Z,72.30
2022-12-01T01:29:08.606Z,72.40
2022-12-01T01:31:36.074Z,72.50
2022-12-01T01:34:10.731Z,72.50
2022-12-01T01:36:38.163Z,72.60
2022-12-01T01:39:11.983Z,72.60
2022-12-01T01:41:41.673Z,72.50
2022-12-01T01:44:52.733Z,72.50
2022-12-01T01:47:29.942Z,72.50
2022-12-01T01:50:09.348Z,72.50
2022-12-01T01:52:49.049Z,72.60
2022-12-01T01:55:16.963Z,72.70
2022-12-01T01:57:51.779Z,72.70
2022-12-01T02:00:29.250Z,72.60
2022-12-01T02:03:01.317Z,72.60
2022-12-01T02:05:42.129Z,72.50
2022-12-01T02:08:22.164Z,72.40
2022-12-01T02:11:10.872Z,72.10
2022-12-01T02:14:00.869Z,72.10
2022-12-01T02:17:04.016Z,72.30
2022-12-01T02:19:37.800Z,72.10
2022-12-01T02:22:37.801Z,72.30
2022-12-01T02:25:33.841Z,72.30
2022-12-01T02:28:32.870Z,72.40
2022-12-01T02:31:18.898Z,72.40
2022-12-01T02:34:22.430Z,72.30
2022-12-01T02:37:01.900Z,72.30
2022-12-01T02:39:56.736Z,72.20
2022-12-01T02:42:55.050Z,72.30
2022-12-01T02:45:52.877Z,72.30
2022-12-01T02:48:28.928Z,72.30
2022-12-01T02:51:07.290Z,72.30
2022-12-01T02:53:35.227Z,72.20
2022-12-01T02:56:13.888Z,72.30
2022-12-01T02:58:42.356Z,72.40
2022-12-01T03:01:45.955Z,72.20
2022-12-01T03:04:31.792Z,72.00
2022-12-01T03:07:34.228Z,71.90
2022-12-01T03:10:17.822Z,71.90
2022-12-01T03:13:20.275Z,71.80
2022-12-01T03:16:19.976Z,71.80
2022-12-01T03:18:54.459Z,71.80
2022-12-01T03:21:42.850Z,71.80
2022-12-01T03:24:15.120Z,71.90
2022-12-01T03:26:52.819Z,71.70
2022-12-01T03:29:48.143Z,71.80
2022-12-01T03:32:28.639Z,71.60
2022-12-01T03:35:23.839Z,71.60
2022-12-01T03:38:06.131Z,71.80
2022-12-01T03:40:43.917Z,71.90
2022-12-01T03:43:23.892Z,72.00
2022-12-01T03:46:19.304Z,72.00
2022-12-01T03:48:54.158Z,72.10
2022-12-01T03:51:43.582Z,72.10
2022-12-01T03:54:42.912Z,72.00
2022-12-01T03:57:20.775Z,72.10
2022-12-01T03:59:51.753Z,72.10
2022-12-01T04:02:25.750Z,72.10
2022-12-01T04:04:53.404Z,72.20
2022-12-01T04:07:34.212Z,72.40
2022-12-01T04:10:07.879Z,72.40
2022-12-01T04:12:42.071Z,72.30
2022-12-01T04:15:13.088Z,72.30
2022-12-01T04:17:50.909Z,72.30
2022-12-01T04:20:18.750Z,72.10
2022-12-01T04:22:52.837Z,72.00
2022-12-01T04:25:20.178Z,72.00
2022-12-01T04:27:53.880Z,72.00
2022-12-01T04:30:21.177Z,72.00
2022-12-01T04:32:54.725Z,72.10
2022-12-01T04:35:22.075Z,72.10
2022-12-01T04:37:55.804Z,72.10
2022-12-01T04:40:29.883Z,72.10
2022-12-01T04:42:57.044Z,72.20
2022-12-01T04:45:30.873Z,72.30
2022-12-01T04:47:58.251Z,72.20
2022-12-01T04:50:32.088Z,71.90
2022-12-01T04:52:59.088Z,71.60
2022-12-01T04:55:32.799Z,71.80
2022-12-01T04:58:07.791Z,71.60
2022-12-01T05:00:35.561Z,71.80
2022-12-01T05:03:14.823Z,71.70
2022-12-01T05:05:49.716Z,71.80
2022-12-01T05:08:23.520Z,71.70
2022-12-01T05:11:01.788Z,71.60
2022-12-01T05:13:29.994Z,71.60
2022-12-01T05:16:35.065Z,71.90
2022-12-01T05:19:43.953Z,72.10
2022-12-01T05:22:31.307Z,72.00
2022-12-01T05:25:11.876Z,72.20
2022-12-01T05:27:39.230Z,72.10
2022-12-01T05:30:13.893Z,72.10
2022-12-01T05:32:41.696Z,72.00
2022-12-01T05:35:15.926Z,72.00
2022-12-01T05:37:43.774Z,72.10
2022-12-01T05:40:19.276Z,71.90
2022-12-01T05:42:46.781Z,72.00
2022-12-01T05:45:21.049Z,71.90
2022-12-01T05:47:48.306Z,72.00
2022-12-01T05:50:16.526Z,71.80
2022-12-01T05:52:50.036Z,71.60
2022-12-01T05:55:17.466Z,71.40
2022-12-01T05:57:52.906Z,71.50
2022-12-01T06:00:20.975Z,71.80
2022-12-01T06:02:54.927Z,71.70
2022-12-01T06:05:29.940Z,71.70
2022-12-01T06:08:04.266Z,71.80
2022-12-01T06:10:43.776Z,71.90
2022-12-01T06:13:18.026Z,71.90
2022-12-01T06:15:45.390Z,71.80
2022-12-01T06:18:19.030Z,71.90
2022-12-01T06:20:52.837Z,71.90
2022-12-01T06:23:30.300Z,72.00
2022-12-01T06:26:04.752Z,72.00
2022-12-01T06:28:32.015Z,71.80
2022-12-01T06:31:05.795Z,71.50
2022-12-01T06:33:39.818Z,71.50
2022-12-01T06:36:08.172Z,71.50
2022-12-01T06:38:43.777Z,71.20
2022-12-01T06:41:17.819Z,71.30
2022-12-01T06:43:45.394Z,71.50
2022-12-01T06:46:19.896Z,71.60
2022-12-01T06:48:55.768Z,71.70
2022-12-01T06:51:23.259Z,71.30
2022-12-01T06:54:05.603Z,71.30
2022-12-01T06:56:33.308Z,71.50
2022-12-01T06:59:07.988Z,71.70
2022-12-01T07:01:35.838Z,71.60
2022-12-01T07:04:10.109Z,71.40
2022-12-01T07:06:44.078Z,71.40
2022-12-01T07:09:23.808Z,71.40
2022-12-01T07:11:50.919Z,71.20
2022-12-01T07:14:30.855Z,71.50
2022-12-01T07:16:59.768Z,71.70
2022-12-01T07:19:34.060Z,71.70
2022-12-01T07:22:07.784Z,71.90
2022-12-01T07:24:34.924Z,71.90
2022-12-01T07:27:08.879Z,71.90
2022-12-01T07:29:36.323Z,71.90
2022-12-01T07:32:09.902Z,72.20
2022-12-01T07:34:37.824Z,72.40
2022-12-01T07:37:11.844Z,72.50
2022-12-01T07:39:45.883Z,72.40
2022-12-01T07:42:19.873Z,72.50
2022-12-01T07:44:47.228Z,72.50
2022-12-01T07:47:21.857Z,72.60
2022-12-01T07:49:55.863Z,72.70
2022-12-01T07:52:23.531Z,72.70
2022-12-01T07:54:58.503Z,72.70
2022-12-01T07:57:26.156Z,72.70
2022-12-01T07:59:59.892Z,73.00
2022-12-01T08:02:27.920Z,73.10
2022-12-01T08:05:01.947Z,73.10
2022-12-01T08:07:35.951Z,73.40
2022-12-01T08:10:09.832Z,73.60
2022-12-01T08:12:43.850Z,73.80
2022-12-01T08:15:17.837Z,73.80
2022-12-01T08:17:45.142Z,73.80
2022-12-01T08:20:23.862Z,74.10
2022-12-01T08:22:51.882Z,74.20
2022-12-01T08:25:19.502Z,74.30
2022-12-01T08:27:52.886Z,74.40
2022-12-01T08:30:26.947Z,74.60
2022-12-01T08:32:55.684Z,74.70
2022-12-01T08:35:29.861Z,74.50
2022-12-01T08:37:58.196Z,74.70
2022-12-01T08:40:32.176Z,74.70
2022-12-01T08:42:59.950Z,74.60
2022-12-01T08:45:37.091Z,74.30
2022-12-01T08:48:10.924Z,74.50
2022-12-01T08:50:38.126Z,74.60
2022-12-01T08:53:12.233Z,74.50
2022-12-01T08:55:39.821Z,74.40
2022-12-01T08:58:14.288Z,74.30
2022-12-01T09:00:41.800Z,74.30
2022-12-01T09:03:15.919Z,74.60
2022-12-01T09:05:49.878Z,74.50
2022-12-01T09:08:39.809Z,74.50
2022-12-01T09:11:18.799Z,74.40
2022-12-01T09:13:52.927Z,74.20
2022-12-01T09:16:29.592Z,74.40
2022-12-01T09:18:57.145Z,74.50
2022-12-01T09:21:33.683Z,74.60
2022-12-01T09:24:02.157Z,74.50
2022-12-01T09:26:36.940Z,74.50
2022-12-01T09:29:10.165Z,74.80
2022-12-01T09:31:46.697Z,74.80
2022-12-01T09:34:19.666Z,74.70
2022-12-01T09:36:54.867Z,74.50
2022-12-01T09:39:22.453Z,74.20
2022-12-01T09:42:08.780Z,74.20
2022-12-01T09:44:48.266Z,74.00
2022-12-01T09:47:39.294Z,74.20
2022-12-01T09:50:07.087Z,74.60
2022-12-01T09:52:55.062Z,74.70
2022-12-01T09:55:25.587Z,74.90
2022-12-01T09:58:05.808Z,74.90
2022-12-01T10:00:43.237Z,74.80
2022-12-01T10:03:43.902Z,75.00
2022-12-01T10:06:29.493Z,75.20
2022-12-01T10:09:29.816Z,75.30
2022-12-01T10:12:15.848Z,75.40
2022-12-01T10:14:46.845Z,75.30
2022-12-01T10:17:24.302Z,75.50
2022-12-01T10:20:18.014Z,75.50
2022-12-01T10:23:21.281Z,75.50
2022-12-01T10:25:57.846Z,75.10
2022-12-01T10:28:40.765Z,75.30
2022-12-01T10:31:21.368Z,75.30
2022-12-01T10:34:21.857Z,75.20
2022-12-01T10:36:49.391Z,75.30
2022-12-01T10:39:35.990Z,75.10
2022-12-01T10:42:36.480Z,74.90
2022-12-01T10:45:16.939Z,75.00
2022-12-01T10:48:13.355Z,75.00
2022-12-01T10:50:48.084Z,75.10
2022-12-01T10:53:37.072Z,75.40
2022-12-01T10:56:18.375Z,75.50
2022-12-01T10:58:58.582Z,75.70
2022-12-01T11:01:35.315Z,75.90
2022-12-01T11:04:28.255Z,75.50
2022-12-01T11:07:08.966Z,75.40
2022-12-01T11:09:45.701Z,75.40
2022-12-01T11:12:26.884Z,75.60
2022-12-01T11:15:02.907Z,75.80
2022-12-01T11:17:48.777Z,76.00
2022-12-01T11:20:37.064Z,76.20
2022-12-01T11:23:21.022Z,75.80
2022-12-01T11:26:04.036Z,75.50
2022-12-01T11:28:35.123Z,75.70
2022-12-01T11:31:15.842Z,75.60
2022-12-01T11:33:54.724Z,75.50
2022-12-01T11:36:50.782Z,75.00
2022-12-01T11:39:46.022Z,75.20
2022-12-01T11:42:30.832Z,75.20
2022-12-01T11:45:11.954Z,75.20
2022-12-01T11:48:04.903Z,75.60
2022-12-01T11:50:45.163Z,75.40
2022-12-01T11:53:48.014Z,75.60
2022-12-01T11:56:25.725Z,75.60
2022-12-01T11:59:18.946Z,75.10
2022-12-01T12:02:04.831Z,75.40
2022-12-01T12:05:22.929Z,75.40
2022-12-01T12:08:23.016Z,75.10
2022-12-01T12:11:32.114Z,75.00
2022-12-01T12:14:20.598Z,75.00
2022-12-01T12:17:26.891Z,74.90
2022-12-01T12:20:08.258Z,75.00
2022-12-01T12:23:13.802Z,74.90
2022-12-01T12:26:17.786Z,75.10
2022-12-01T12:28:50.534Z,74.80
2022-12-01T12:31:28.135Z,74.80
2022-12-01T12:34:31.917Z,74.80
2022-12-01T12:37:37.800Z,74.70
2022-12-01T12:40:32.975Z,74.40
2022-12-01T12:43:21.984Z,74.70
2022-12-01T12:46:14.331Z,74.60
2022-12-01T12:49:19.872Z,74.70
2022-12-01T12:52:08.290Z,74.90
2022-12-01T12:55:07.774Z,74.80
2022-12-01T12:57:45.017Z,74.90
2022-12-01T13:00:31.797Z,74.80
2022-12-01T13:03:17.142Z,74.60
2022-12-01T13:06:14.913Z,74.60
2022-12-01T13:09:01.422Z,74.60
2022-12-01T13:11:48.905Z,74.60
2022-12-01T13:14:29.627Z,74.60
2022-12-01T13:17:24.377Z,74.60
2022-12-01T13:19:59.858Z,74.70
2022-12-01T13:22:34.493Z,74.90
2022-12-01T13:25:10.093Z,75.10
2022-12-01T13:27:40.974Z,75.10
2022-12-01T13:30:27.893Z,74.90
2022-12-01T13:33:22.213Z,74.70
2022-12-01T13:36:21.329Z,73.80
2022-12-01T13:38:47.899Z,74.00
2022-12-01T13:41:27.643Z,74.40
2022-12-01T13:44:23.799Z,74.40
2022-12-01T13:47:19.892Z,74.50
2022-12-01T13:49:49.981Z,74.30
2022-12-01T13:52:25.802Z,74.20
2022-12-01T13:55:08.232Z,74.00
2022-12-01T13:57:51.848Z,73.90
2022-12-01T14:00:32.148Z,73.70
2022-12-01T14:03:25.982Z,73.40
2022-12-01T14:06:13.510Z,73.30
2022-12-01T14:09:03.131Z,73.40
2022-12-01T14:11:37.919Z,73.40
2022-12-01T14:14:25.830Z,73.60
2022-12-01T14:17:02.724Z,73.90
2022-12-01T14:19:52.494Z,74.10
2022-12-01T14:22:51.903Z,74.00
2022-12-01T14:25:33.505Z,73.30
2022-12-01T14:28:04.195Z,73.30
2022-12-01T14:30:48.059Z,73.50
2022-12-01T14:33:40.410Z,73.90
2022-12-01T14:36:19.998Z,74.20
2022-12-01T14:38:48.878Z,74.00
2022-12-01T14:41:32.921Z,74.10
2022-12-01T14:44:13.870Z,74.00
2022-12-01T14:46:58.856Z,73.70
2022-12-01T14:49:41.859Z,73.80
2022-12-01T14:52:32.266Z,73.80
2022-12-01T14:55:09.044Z,73.70
2022-12-01T14:57:47.494Z,73.90
2022-12-01T15:00:32.459Z,73.90
2022-12-01T15:03:09.264Z,73.80
2022-12-01T15:05:51.040Z,73.30
2022-12-01T15:08:53.405Z,73.20
2022-12-01T15:11:30.843Z,72.70
2022-12-01T15:14:05.578Z,72.70
2022-12-01T15:16:47.978Z,73.30
2022-12-01T15:19:45.093Z,73.70
2022-12-01T15:22:15.052Z,74.10
2022-12-01T15:24:50.189Z,74.20
2022-12-01T15:27:32.733Z,73.90
2022-12-01T15:30:11.213Z,73.70
2022-12-01T15:32:43.042Z,73.70
2022-12-01T15:35:27.983Z,73.60
2022-12-01T15:37:59.389Z,73.10
2022-12-01T15:43:33.553Z,73.70
2022-12-01T15:46:16.995Z,73.60
2022-12-01T15:48:52.113Z,73.40
2022-12-01T15:51:35.942Z,73.70
2022-12-01T15:54:04.102Z,73.80
2022-12-01T15:56:46.078Z,74.00
2022-12-01T15:59:13.342Z,73.90
2022-12-01T16:01:50.003Z,74.00
2022-12-01T16:04:25.779Z,74.20
2022-12-01T16:07:15.952Z,73.70
2022-12-01T16:10:04.978Z,73.80
2022-12-01T16:12:35.392Z,74.00
2022-12-01T16:15:19.013Z,74.10
2022-12-01T16:17:55.293Z,74.00
2022-12-01T16:20:33.312Z,74.10
2022-12-01T16:23:10.986Z,73.80
2022-12-01T16:25:43.652Z,73.90
2022-12-01T16:28:30.043Z,73.90
2022-12-01T16:30:57.701Z,73.90
2022-12-01T16:33:33.972Z,73.90
2022-12-01T16:36:01.653Z,74.10
2022-12-01T16:38:37.032Z,74.20
2022-12-01T16:41:16.969Z,74.10
2022-12-01T16:44:26.554Z,74.20
2022-12-01T16:46:49.994Z,74.30
2022-12-01T16:49:24.075Z,73.90
2022-12-01T16:51:56.819Z,74.00
2022-12-01T16:54:31.003Z,74.30
2022-12-01T16:56:58.253Z,74.20
2022-12-01T16:59:32.988Z,74.00
2022-12-01T17:02:08.280Z,74.00
2022-12-01T17:04:55.954Z,74.10
2022-12-01T17:07:30.210Z,74.20
2022-12-01T17:10:11.944Z,74.00
2022-12-01T17:12:46.034Z,74.10
2022-12-01T17:15:14.093Z,74.10
2022-12-01T17:17:48.092Z,74.40
2022-12-01T17:20:21.837Z,74.70
2022-12-01T17:22:49.303Z,75.00
2022-12-01T17:25:23.083Z,75.00
2022-12-01T17:27:50.433Z,74.80
2022-12-01T17:30:24.012Z,75.00
2022-12-01T17:32:59.063Z,75.00
2022-12-01T17:35:26.072Z,74.50
2022-12-01T17:37:59.914Z,74.60
2022-12-01T17:40:29.257Z,74.90
2022-12-01T17:43:02.916Z,75.00
2022-12-01T17:45:30.203Z,75.00
2022-12-01T17:48:04.036Z,75.10
2022-12-01T17:50:31.325Z,75.10
2022-12-01T17:53:05.106Z,75.20
2022-12-01T17:55:32.375Z,75.20
2022-12-01T17:58:06.166Z,75.20
2022-12-01T18:00:40.429Z,75.20
2022-12-01T18:03:15.086Z,75.30
2022-12-01T18:05:42.754Z,75.20
2022-12-01T18:08:23.857Z,75.00
2022-12-01T18:11:02.737Z,74.90
2022-12-01T18:13:37.201Z,74.80
2022-12-01T18:16:20.216Z,74.80
2022-12-01T18:18:47.969Z,74.90
2022-12-01T18:21:24.843Z,74.70
2022-12-01T18:23:54.937Z,74.80
2022-12-01T18:26:30.285Z,74.80
2022-12-01T18:29:14.308Z,74.50
2022-12-01T18:31:41.859Z,74.60
2022-12-01T18:34:11.382Z,74.90
2022-12-01T18:36:46.997Z,74.90
2022-12-01T18:39:14.943Z,74.90
2022-12-01T18:41:50.367Z,75.00
2022-12-01T18:44:17.658Z,74.60
2022-12-01T18:46:52.216Z,74.50
2022-12-01T18:49:19.935Z,74.40
2022-12-01T18:51:55.012Z,74.70
2022-12-01T18:54:22.333Z,74.90
2022-12-01T18:57:03.190Z,74.70
2022-12-01T18:59:30.927Z,74.50
2022-12-01T19:02:05.330Z,74.50
2022-12-01T19:04:32.957Z,74.40
2022-12-01T19:07:07.217Z,74.30
2022-12-01T19:09:41.689Z,74.50
2022-12-01T19:12:16.227Z,74.40
2022-12-01T19:14:43.367Z,74.00
2022-12-01T19:17:17.328Z,74.10
2022-12-01T19:19:44.877Z,74.40
2022-12-01T19:22:19.062Z,74.40
2022-12-01T19:24:50.222Z,74.40
2022-12-01T19:27:28.418Z,74.00
2022-12-01T19:29:55.654Z,74.10
2022-12-01T19:32:29.982Z,74.40
2022-12-01T19:34:57.161Z,74.60
2022-12-01T19:37:30.924Z,74.80
2022-12-01T19:39:58.342Z,74.80
2022-12-01T19:42:32.162Z,74.80
2022-12-01T19:45:00.552Z,74.80
2022-12-01T19:47:40.884Z,74.60
2022-12-01T19:50:16.022Z,74.70
2022-12-01T19:52:44.153Z,74.50
2022-12-01T19:55:18.946Z,74.10
2022-12-01T19:57:58.135Z,74.10
2022-12-01T20:00:26.267Z,74.10
2022-12-01T20:03:00.159Z,74.30
2022-12-01T20:05:27.396Z,74.40
2022-12-01T20:08:01.403Z,74.50
2022-12-01T20:10:35.898Z,74.40
2022-12-01T20:13:10.314Z,74.40
2022-12-01T20:15:37.582Z,74.40
2022-12-01T20:18:10.906Z,74.40
2022-12-01T20:20:45.021Z,74.70
2022-12-01T20:23:13.057Z,74.80
2022-12-01T20:25:47.504Z,74.80
2022-12-01T20:28:22.734Z,74.70
2022-12-01T20:30:57.379Z,74.50
2022-12-01T20:33:26.196Z,74.50
2022-12-01T20:35:53.831Z,74.70
2022-12-01T20:38:28.004Z,74.70
2022-12-01T20:41:02.040Z,74.50
2022-12-01T20:43:29.559Z,74.50
2022-12-01T20:46:04.426Z,74.70
2022-12-01T20:48:38.882Z,74.50
2022-12-01T20:51:08.770Z,74.40
2022-12-01T20:53:59.523Z,74.60
2022-12-01T20:56:32.119Z,74.60
2022-12-01T20:59:06.949Z,74.40
2022-12-01T21:01:42.519Z,74.30
2022-12-01T21:04:10.579Z,74.20
2022-12-01T21:06:45.028Z,74.40
2022-12-01T21:09:22.948Z,74.40
2022-12-01T21:12:23.019Z,74.30
2022-12-01T21:15:03.228Z,73.70
2022-12-01T21:17:39.922Z,73.90
2022-12-01T21:20:18.724Z,73.80
2022-12-01T21:22:53.843Z,74.00
2022-12-01T21:25:22.629Z,74.00
2022-12-01T21:27:57.024Z,74.00
2022-12-01T21:30:30.345Z,74.00
2022-12-01T21:33:38.177Z,74.50
2022-12-01T21:36:17.698Z,74.30
2022-12-01T21:38:53.033Z,74.40
2022-12-01T21:41:28.858Z,74.10
2022-12-01T21:44:15.005Z,74.10
2022-12-01T21:46:43.508Z,74.10
2022-12-01T21:49:26.342Z,74.00
2022-12-01T21:51:54.439Z,74.00
2022-12-01T21:54:29.961Z,74.00
2022-12-01T21:57:04.914Z,73.40
2022-12-01T21:59:33.349Z,73.20
2022-12-01T22:02:12.489Z,73.50
2022-12-01T22:04:40.269Z,73.70
2022-12-01T22:07:16.985Z,73.70
2022-12-01T22:10:09.171Z,73.90
2022-12-01T22:12:45.918Z,74.10
2022-12-01T22:15:36.559Z,73.70
2022-12-01T22:18:29.239Z,73.80
2022-12-01T22:21:04.000Z,74.00
2022-12-01T22:23:36.349Z,74.00
2022-12-01T22:26:23.009Z,73.90
2022-12-01T22:28:57.069Z,74.00
2022-12-01T22:31:31.032Z,74.10
2022-12-01T22:34:03.487Z,74.10
2022-12-01T22:36:40.141Z,74.00
2022-12-01T22:39:37.048Z,73.80
2022-12-01T22:42:21.917Z,73.50
2022-12-01T22:44:49.687Z,73.60
2022-12-01T22:47:24.394Z,73.50
2022-12-01T22:49:52.390Z,73.70
2022-12-01T22:52:35.105Z,74.10
2022-12-01T22:55:02.399Z,74.10
2022-12-01T22:57:42.145Z,74.20
2022-12-01T23:00:25.109Z,74.40
2022-12-01T23:03:02.088Z,74.40
2022-12-01T23:05:33.941Z,74.30
2022-12-01T23:08:09.138Z,74.40
2022-12-01T23:10:50.062Z,74.20
2022-12-01T23:13:24.013Z,74.40
2022-12-01T23:16:00.201Z,74.40
2022-12-01T23:18:35.191Z,74.20
2022-12-01T23:21:09.001Z,74.10
2022-12-01T23:23:38.424Z,74.20
2022-12-01T23:26:14.950Z,74.50
2022-12-01T23:28:49.379Z,74.70
2022-12-01T23:31:24.081Z,74.80
2022-12-01T23:33:51.525Z,74.80
2022-12-01T23:36:35.965Z,74.80
2022-12-01T23:39:10.546Z,74.80
2022-12-01T23:41:51.418Z,74.80
2022-12-01T23:44:45.869Z,74.70
2022-12-01T23:47:27.403Z,74.60
2022-12-01T23:50:01.269Z,74.60
2022-12-01T23:52:44.097Z,74.60
2022-12-01T23:55:38.244Z,74.70
2022-12-01T23:58:12.055Z,74.50
